createdAt,value
2019-03-13T00:01:40.493Z,97.80
2019-03-13T00:04:09.610Z,96.90
2019-03-13T00:06:38.535Z,95.60
2019-03-13T00:09:10.601Z,95.80
2019-03-13T00:11:39.752Z,95.60
2019-03-13T00:14:08.583Z,95.40
2019-03-13T00:16:37.555Z,96.40
2019-03-13T00:19:06.558Z,95.10
2019-03-13T00:21:35.398Z,95.30
2019-03-13T00:24:04.735Z,95.70
2019-03-13T00:26:34.280Z,96.50
2019-03-13T00:29:03.295Z,95.90
2019-03-13T00:31:32.266Z,95.80
2019-03-13T00:34:01.156Z,96.20
2019-03-13T00:36:30.160Z,96.20
2019-03-13T00:38:59.038Z,95.30
2019-03-13T00:41:27.924Z,95.30
2019-03-13T00:43:56.869Z,94.60
2019-03-13T00:46:25.785Z,94.90
2019-03-13T00:48:54.668Z,95.30
2019-03-13T00:51:23.517Z,94.50
2019-03-13T00:53:52.565Z,94.20
2019-03-13T00:56:21.448Z,93.80
2019-03-13T00:58:50.295Z,93.70
2019-03-13T01:01:37.240Z,94.00
2019-03-13T01:04:43.773Z,93.20
2019-03-13T01:07:12.997Z,93.40
2019-03-13T01:09:41.796Z,93.70
2019-03-13T01:12:10.888Z,93.60
2019-03-13T01:14:39.712Z,92.90
2019-03-13T01:17:08.869Z,93.60
2019-03-13T01:19:37.678Z,93.40
2019-03-13T01:22:06.667Z,93.90
2019-03-13T01:24:35.574Z,93.70
2019-03-13T01:27:04.907Z,94.10
2019-03-13T01:29:34.121Z,93.30
2019-03-13T01:32:22.143Z,94.00
2019-03-13T01:35:12.872Z,93.90
2019-03-13T01:37:41.718Z,94.40
2019-03-13T01:40:11.745Z,93.60
2019-03-13T01:42:59.882Z,93.80
2019-03-13T01:45:28.784Z,93.70
2019-03-13T01:47:57.589Z,93.40
2019-03-13T01:50:26.431Z,94.00
2019-03-13T01:52:55.782Z,92.50
2019-03-13T01:55:24.590Z,92.10
2019-03-13T01:57:53.635Z,91.30
2019-03-13T02:00:22.688Z,91.70
2019-03-13T02:02:51.609Z,91.90
2019-03-13T02:05:20.499Z,91.50
2019-03-13T02:07:49.395Z,91.80
2019-03-13T02:10:18.310Z,92.00
2019-03-13T02:12:47.118Z,91.80
2019-03-13T02:15:18.843Z,91.30
2019-03-13T02:17:47.749Z,91.80
2019-03-13T02:20:17.354Z,92.00
2019-03-13T02:22:46.252Z,91.70
2019-03-13T02:25:15.739Z,91.40
2019-03-13T02:27:44.643Z,91.00
2019-03-13T02:30:14.443Z,91.30
2019-03-13T02:32:43.489Z,90.90
2019-03-13T02:35:12.767Z,91.60
2019-03-13T02:37:41.669Z,91.00
2019-03-13T02:40:10.929Z,90.20
2019-03-13T02:42:39.840Z,90.40
2019-03-13T02:45:09.726Z,90.70
2019-03-13T02:47:39.027Z,89.70
2019-03-13T02:50:08.986Z,89.60
2019-03-13T02:52:38.127Z,86.80
2019-03-13T02:55:07.460Z,86.90
2019-03-13T02:57:36.655Z,85.20
2019-03-13T03:00:08.280Z,86.80
2019-03-13T03:02:41.380Z,85.80
2019-03-13T03:05:10.638Z,85.40
2019-03-13T03:07:39.601Z,82.70
2019-03-13T03:10:09.667Z,85.20
2019-03-13T03:12:38.842Z,86.00
2019-03-13T03:15:12.925Z,83.80
2019-03-13T03:17:42.310Z,82.50
2019-03-13T03:20:13.459Z,81.70
2019-03-13T03:22:42.278Z,82.10
2019-03-13T03:25:11.902Z,81.70
2019-03-13T03:27:40.826Z,81.60
2019-03-13T03:30:15.791Z,80.90
2019-03-13T03:32:44.600Z,81.20
2019-03-13T03:35:13.532Z,80.00
2019-03-13T03:37:42.481Z,80.40
2019-03-13T03:40:12.805Z,81.50
2019-03-13T03:42:41.751Z,82.20
2019-03-13T03:45:10.992Z,81.30
2019-03-13T03:47:40.235Z,80.70
2019-03-13T03:50:10.800Z,80.10
2019-03-13T03:52:39.718Z,79.40
2019-03-13T03:55:09.268Z,77.40
2019-03-13T03:57:38.151Z,79.40
2019-03-13T04:00:07.829Z,76.80
2019-03-13T04:02:36.643Z,77.20
2019-03-13T04:05:05.911Z,74.80
2019-03-13T04:07:34.767Z,75.10
2019-03-13T04:10:03.822Z,74.70
2019-03-13T04:12:32.685Z,73.30
2019-03-13T04:15:01.985Z,70.60
2019-03-13T04:17:30.864Z,70.40
2019-03-13T04:19:59.671Z,70.00
2019-03-13T04:22:28.988Z,70.40
2019-03-13T04:25:15.449Z,70.00
2019-03-13T04:27:44.338Z,70.20
2019-03-13T04:30:13.340Z,69.60
2019-03-13T04:32:42.307Z,70.60
2019-03-13T04:35:11.519Z,69.60
2019-03-13T04:37:40.716Z,70.20
2019-03-13T04:40:10.176Z,68.30
2019-03-13T04:42:38.999Z,68.50
2019-03-13T04:45:08.325Z,69.10
2019-03-13T04:47:37.135Z,69.40
2019-03-13T04:50:06.546Z,70.00
2019-03-13T04:52:35.528Z,70.50
2019-03-13T04:55:04.834Z,70.50
2019-03-13T04:57:35.007Z,70.80
2019-03-13T05:00:04.415Z,72.30
2019-03-13T05:02:33.221Z,73.70
2019-03-13T05:05:02.128Z,72.30
2019-03-13T05:07:31.044Z,72.80
2019-03-13T05:09:59.871Z,73.10
2019-03-13T05:12:28.693Z,72.80
2019-03-13T05:14:57.756Z,72.40
2019-03-13T05:17:26.966Z,70.50
2019-03-13T05:19:55.840Z,70.40
2019-03-13T05:22:24.722Z,70.60
2019-03-13T05:24:53.587Z,70.10
2019-03-13T05:27:23.244Z,70.40
2019-03-13T05:29:52.130Z,69.50
2019-03-13T05:32:20.998Z,68.50
2019-03-13T05:34:49.810Z,67.60
2019-03-13T05:37:18.616Z,67.80
2019-03-13T05:39:47.488Z,67.50
2019-03-13T05:42:16.928Z,67.70
2019-03-13T05:44:45.851Z,68.20
2019-03-13T05:47:14.770Z,67.20
2019-03-13T05:49:44.164Z,67.10
2019-03-13T05:52:14.913Z,66.40
2019-03-13T05:54:43.725Z,66.20
2019-03-13T05:57:13.373Z,67.20
2019-03-13T05:59:42.517Z,67.50
2019-03-13T06:02:11.433Z,66.50
2019-03-13T06:04:40.491Z,66.50
2019-03-13T06:07:09.669Z,66.10
2019-03-13T06:09:38.896Z,66.90
2019-03-13T06:12:07.829Z,66.70
2019-03-13T06:14:36.708Z,66.00
2019-03-13T06:17:05.954Z,64.80
2019-03-13T06:19:34.749Z,65.10
2019-03-13T06:22:03.654Z,65.50
2019-03-13T06:24:32.572Z,64.10
2019-03-13T06:27:01.414Z,64.00
2019-03-13T06:29:31.759Z,64.40
2019-03-13T06:32:00.957Z,63.80
2019-03-13T06:34:29.783Z,63.70
2019-03-13T06:36:59.039Z,63.00
2019-03-13T06:39:27.942Z,62.40
2019-03-13T06:41:56.964Z,62.40
2019-03-13T06:44:25.779Z,61.70
2019-03-13T06:46:54.674Z,61.60
2019-03-13T06:49:25.319Z,61.70
2019-03-13T06:51:54.189Z,61.70
2019-03-13T06:54:23.008Z,63.10
2019-03-13T06:56:52.403Z,62.50
2019-03-13T06:59:27.043Z,63.70
2019-03-13T07:02:30.091Z,63.40
2019-03-13T07:05:18.528Z,64.70
2019-03-13T07:08:05.377Z,64.90
2019-03-13T07:10:39.725Z,64.20
2019-03-13T07:13:46.071Z,64.70
2019-03-13T07:19:24.335Z,65.40
2019-03-13T07:22:11.278Z,65.50
2019-03-13T07:24:46.159Z,65.70
2019-03-13T07:27:34.079Z,65.00
2019-03-13T07:30:23.735Z,64.60
2019-03-13T07:33:08.063Z,65.80
2019-03-13T07:36:09.163Z,63.70
2019-03-13T07:38:47.324Z,63.50
2019-03-13T07:41:21.175Z,63.90
2019-03-13T07:44:00.364Z,65.80
2019-03-13T07:46:42.703Z,66.10
2019-03-13T07:49:36.703Z,66.00
2019-03-13T07:52:20.718Z,66.10
2019-03-13T07:54:57.928Z,64.90
2019-03-13T07:57:34.246Z,65.10
2019-03-13T08:00:14.213Z,64.10
2019-03-13T08:02:51.140Z,64.70
2019-03-13T08:05:26.223Z,65.90
2019-03-13T08:08:13.479Z,67.20
2019-03-13T08:10:52.126Z,68.30
2019-03-13T08:13:38.778Z,68.80
2019-03-13T08:16:29.676Z,70.70
2019-03-13T08:19:26.552Z,70.70
2019-03-13T08:22:13.182Z,70.80
2019-03-13T08:25:08.282Z,72.60
2019-03-13T08:27:48.415Z,73.90
2019-03-13T08:30:39.687Z,74.80
2019-03-13T08:33:25.216Z,74.20
2019-03-13T08:36:12.419Z,75.00
2019-03-13T08:39:00.579Z,75.40
2019-03-13T08:41:47.191Z,74.30
2019-03-13T08:44:22.208Z,74.90
2019-03-13T08:47:28.424Z,75.40
2019-03-13T08:50:13.236Z,75.20
2019-03-13T08:53:07.131Z,74.60
2019-03-13T08:55:49.544Z,75.70
2019-03-13T08:58:40.091Z,75.90
2019-03-13T09:01:30.415Z,77.10
2019-03-13T09:04:24.457Z,77.20
2019-03-13T09:07:02.404Z,75.60
2019-03-13T09:09:48.888Z,75.70
2019-03-13T09:12:42.876Z,76.10
2019-03-13T09:15:29.174Z,76.30
2019-03-13T09:18:16.148Z,76.20
2019-03-13T09:21:07.174Z,76.50
2019-03-13T09:23:54.151Z,76.30
2019-03-13T09:26:44.918Z,76.90
2019-03-13T09:29:37.971Z,77.80
2019-03-13T09:32:19.847Z,76.50
2019-03-13T09:35:01.568Z,76.00
2019-03-13T09:37:49.614Z,74.60
2019-03-13T09:40:25.606Z,73.70
2019-03-13T09:43:07.123Z,69.20
2019-03-13T09:45:51.199Z,68.00
2019-03-13T09:48:38.027Z,68.50
2019-03-13T09:51:16.575Z,66.90
2019-03-13T09:54:04.235Z,67.10
2019-03-13T09:56:43.052Z,67.30
2019-03-13T09:59:42.838Z,67.50
2019-03-13T10:02:19.215Z,66.20
2019-03-13T10:05:09.955Z,66.90
2019-03-13T10:07:50.529Z,67.20
2019-03-13T10:10:27.438Z,67.70
2019-03-13T10:13:18.316Z,68.70
2019-03-13T10:16:15.365Z,69.30
2019-03-13T10:19:21.567Z,69.60
2019-03-13T10:22:00.815Z,69.10
2019-03-13T10:24:43.094Z,68.10
2019-03-13T10:27:20.638Z,67.30
2019-03-13T10:30:05.039Z,66.40
2019-03-13T10:32:44.792Z,68.60
2019-03-13T10:35:36.368Z,69.80
2019-03-13T10:38:40.118Z,70.10
2019-03-13T10:41:18.072Z,83.20
2019-03-13T10:43:57.744Z,90.80
2019-03-13T10:46:42.360Z,92.60
2019-03-13T10:49:26.670Z,95.90
2019-03-13T10:52:10.664Z,96.00
2019-03-13T10:55:05.813Z,95.90
2019-03-13T10:57:52.315Z,97.30
2019-03-13T11:00:37.918Z,96.40
2019-03-13T11:03:14.224Z,95.30
2019-03-13T11:05:59.750Z,96.00
2019-03-13T11:08:39.484Z,94.30
2019-03-13T11:11:24.267Z,94.50
2019-03-13T11:14:15.978Z,94.90
2019-03-13T11:17:10.671Z,94.10
2019-03-13T11:19:49.246Z,93.50
2019-03-13T11:22:38.056Z,92.80
2019-03-13T11:25:26.394Z,93.90
2019-03-13T11:28:21.129Z,93.70
2019-03-13T11:31:09.244Z,94.10
2019-03-13T11:33:55.990Z,93.80
2019-03-13T11:36:35.357Z,93.10
2019-03-13T11:39:22.720Z,92.70
2019-03-13T11:42:06.878Z,91.10
2019-03-13T11:44:54.896Z,90.70
2019-03-13T11:47:42.376Z,89.80
2019-03-13T11:50:26.942Z,89.00
2019-03-13T11:53:11.506Z,88.40
2019-03-13T11:55:47.167Z,89.10
2019-03-13T11:58:35.331Z,90.20
2019-03-13T12:01:13.184Z,89.20
2019-03-13T12:03:55.427Z,89.60
2019-03-13T12:06:44.246Z,90.00
2019-03-13T12:09:28.944Z,90.30
2019-03-13T12:12:07.219Z,89.10
2019-03-13T12:15:02.720Z,88.90
2019-03-13T12:17:47.515Z,90.50
2019-03-13T12:20:29.108Z,91.40
2019-03-13T12:23:27.087Z,90.60
2019-03-13T12:26:05.047Z,87.00
2019-03-13T12:29:02.877Z,86.90
2019-03-13T12:31:41.687Z,89.00
2019-03-13T12:34:32.702Z,88.30
2019-03-13T12:37:08.596Z,89.80
2019-03-13T12:39:43.896Z,89.00
2019-03-13T12:42:41.319Z,86.20
2019-03-13T12:45:26.743Z,86.70
2019-03-13T12:48:20.169Z,88.50
2019-03-13T12:51:01.237Z,87.70
2019-03-13T12:53:36.072Z,86.60
2019-03-13T12:56:20.794Z,84.40
2019-03-13T12:59:07.462Z,85.00
2019-03-13T13:01:43.249Z,84.40
2019-03-13T13:04:20.909Z,86.10
2019-03-13T13:06:56.483Z,85.80
2019-03-13T13:09:43.139Z,85.80
2019-03-13T13:12:31.997Z,88.40
2019-03-13T13:15:18.791Z,90.30
2019-03-13T13:17:59.217Z,92.30
2019-03-13T13:20:28.624Z,91.90
2019-03-13T13:22:57.519Z,92.80
2019-03-13T13:25:26.594Z,92.40
2019-03-13T13:27:55.845Z,94.10
2019-03-13T13:30:25.082Z,95.30
2019-03-13T13:32:54.219Z,95.00
2019-03-13T13:35:23.220Z,97.70
2019-03-13T13:37:52.100Z,98.40
2019-03-13T13:40:20.983Z,97.90
2019-03-13T13:42:50.371Z,98.50
2019-03-13T13:45:46.579Z,98.20
2019-03-13T13:48:16.543Z,97.40
2019-03-13T13:50:45.410Z,97.40
2019-03-13T13:53:14.595Z,96.30
2019-03-13T13:55:43.614Z,95.80
2019-03-13T13:58:13.210Z,95.80
2019-03-13T14:00:42.152Z,95.40
2019-03-13T14:03:11.015Z,95.70
2019-03-13T14:05:41.199Z,95.40
2019-03-13T14:08:10.143Z,94.10
2019-03-13T14:10:39.226Z,93.90
2019-03-13T14:13:08.626Z,93.20
2019-03-13T14:15:37.813Z,93.50
2019-03-13T14:18:06.772Z,93.30
2019-03-13T14:20:35.741Z,93.80
2019-03-13T14:23:04.682Z,92.50
2019-03-13T14:25:33.632Z,92.90
2019-03-13T14:28:02.519Z,93.80
2019-03-13T14:30:31.753Z,94.60
2019-03-13T14:33:00.983Z,95.20
2019-03-13T14:35:29.975Z,94.30
2019-03-13T14:37:59.462Z,94.60
2019-03-13T14:40:28.764Z,94.50
2019-03-13T14:42:57.671Z,95.60
2019-03-13T14:45:26.861Z,94.60
2019-03-13T14:47:55.939Z,95.40
2019-03-13T14:50:25.161Z,93.80
2019-03-13T14:52:54.042Z,94.10
2019-03-13T14:55:23.656Z,94.30
2019-03-13T14:57:52.511Z,93.80
2019-03-13T15:00:21.531Z,93.60
2019-03-13T15:02:50.593Z,94.70
2019-03-13T15:05:19.545Z,94.30
2019-03-13T15:07:48.536Z,94.70
2019-03-13T15:10:18.114Z,96.00
2019-03-13T15:12:48.009Z,96.40
2019-03-13T15:15:17.327Z,96.80
2019-03-13T15:17:46.313Z,98.10
2019-03-13T15:20:15.841Z,99.90
2019-03-13T15:22:44.918Z,99.90
2019-03-13T15:25:14.016Z,99.90
2019-03-13T15:27:43.006Z,99.90
2019-03-13T15:30:19.960Z,99.90
2019-03-13T15:32:48.927Z,99.90
2019-03-13T15:35:18.316Z,99.90
2019-03-13T15:37:47.357Z,99.90
2019-03-13T15:40:16.833Z,99.90
2019-03-13T15:42:46.595Z,99.90
2019-03-13T15:45:17.060Z,99.90
2019-03-13T15:47:46.233Z,99.90
2019-03-13T15:50:15.509Z,99.90
2019-03-13T15:52:57.703Z,99.90
2019-03-13T15:55:27.114Z,99.90
2019-03-13T15:57:56.787Z,99.90
2019-03-13T16:00:26.136Z,99.90
2019-03-13T16:02:56.001Z,99.90
2019-03-13T16:05:29.021Z,99.90
2019-03-13T16:07:58.376Z,99.90
2019-03-13T16:10:27.567Z,99.90
2019-03-13T16:12:58.772Z,99.90
2019-03-13T16:15:30.352Z,99.90
2019-03-13T16:18:01.185Z,99.90
2019-03-13T16:20:32.034Z,99.90
2019-03-13T16:23:01.015Z,99.90
2019-03-13T16:25:30.611Z,99.90
2019-03-13T16:27:59.843Z,99.90
2019-03-13T16:30:32.317Z,99.90
2019-03-13T16:33:03.760Z,99.90
2019-03-13T16:35:33.148Z,99.90
2019-03-13T16:38:02.115Z,99.90
2019-03-13T16:40:32.750Z,99.90
2019-03-13T16:43:01.664Z,99.90
2019-03-13T16:45:30.840Z,99.90
2019-03-13T16:47:59.917Z,99.90
2019-03-13T16:50:29.195Z,99.90
2019-03-13T16:52:58.193Z,99.90
2019-03-13T16:55:27.386Z,99.90
2019-03-13T16:57:56.627Z,99.90
2019-03-13T17:00:27.115Z,99.90
2019-03-13T17:02:56.557Z,99.90
2019-03-13T17:05:26.403Z,99.90
2019-03-13T17:07:55.499Z,99.90
2019-03-13T17:10:24.488Z,99.90
2019-03-13T17:12:53.672Z,99.90
2019-03-13T17:15:22.982Z,99.90
2019-03-13T17:17:52.475Z,99.90
2019-03-13T17:20:26.253Z,99.90
2019-03-13T17:22:54.458Z,99.90
2019-03-13T17:25:24.287Z,99.90
2019-03-13T17:27:53.348Z,99.90
2019-03-13T17:30:24.332Z,99.90
2019-03-13T17:32:54.011Z,99.90
2019-03-13T17:35:23.552Z,99.90
2019-03-13T17:37:52.498Z,99.90
2019-03-13T17:40:23.032Z,99.90
2019-03-13T17:42:52.357Z,99.90
2019-03-13T17:45:26.279Z,99.90
2019-03-13T17:47:55.651Z,99.90
2019-03-13T17:50:24.742Z,99.90
2019-03-13T17:52:54.048Z,99.90
2019-03-13T17:55:23.104Z,99.90
2019-03-13T17:57:52.368Z,99.90
2019-03-13T18:00:28.588Z,99.90
2019-03-13T18:02:58.597Z,99.90
2019-03-13T18:05:28.034Z,99.90
2019-03-13T18:07:57.109Z,99.90
2019-03-13T18:10:28.676Z,99.90
2019-03-13T18:12:58.171Z,99.90
2019-03-13T18:15:27.065Z,99.90
2019-03-13T18:17:55.976Z,99.90
2019-03-13T18:20:25.247Z,99.90
2019-03-13T18:22:54.281Z,99.90
2019-03-13T18:25:23.640Z,99.90
2019-03-13T18:27:52.894Z,99.90
2019-03-13T18:30:22.947Z,99.90
2019-03-13T18:32:52.171Z,99.90
2019-03-13T18:35:21.643Z,99.90
2019-03-13T18:37:50.854Z,99.90
2019-03-13T18:40:19.851Z,99.90
2019-03-13T18:42:49.250Z,99.90
2019-03-13T18:45:20.621Z,99.90
2019-03-13T18:47:49.619Z,99.90
2019-03-13T18:50:19.552Z,99.90
2019-03-13T18:52:54.115Z,99.90
2019-03-13T18:55:23.616Z,99.90
2019-03-13T18:57:52.796Z,99.90
2019-03-13T19:00:26.574Z,99.90
2019-03-13T19:02:58.575Z,99.90
2019-03-13T19:05:28.289Z,99.90
2019-03-13T19:07:57.356Z,99.90
2019-03-13T19:10:26.349Z,99.90
2019-03-13T19:12:55.710Z,99.90
2019-03-13T19:15:24.715Z,99.90
2019-03-13T19:17:54.092Z,99.90
2019-03-13T19:20:27.871Z,99.90
2019-03-13T19:22:56.932Z,99.90
2019-03-13T19:25:29.319Z,99.90
2019-03-13T19:27:58.422Z,99.90
2019-03-13T19:30:28.710Z,99.90
2019-03-13T19:32:58.411Z,99.90
2019-03-13T19:35:27.379Z,99.90
2019-03-13T19:37:56.869Z,99.90
2019-03-13T19:40:26.151Z,99.90
2019-03-13T19:42:55.037Z,99.90
2019-03-13T19:45:49.600Z,99.90
2019-03-13T19:48:18.533Z,99.90
2019-03-13T19:50:47.926Z,99.90
2019-03-13T19:53:17.082Z,99.90
2019-03-13T19:55:46.005Z,99.90
2019-03-13T19:58:15.072Z,99.90
2019-03-13T20:00:44.295Z,99.90
2019-03-13T20:03:13.436Z,99.90
2019-03-13T20:05:45.946Z,99.90
2019-03-13T20:08:14.107Z,99.90
2019-03-13T20:10:43.252Z,99.90
2019-03-13T20:13:12.644Z,99.90
2019-03-13T20:15:41.780Z,99.90
2019-03-13T20:18:10.904Z,99.90
2019-03-13T20:20:39.810Z,99.90
2019-03-13T20:23:08.728Z,99.90
2019-03-13T20:25:37.906Z,99.90
2019-03-13T20:28:07.027Z,99.90
2019-03-13T20:30:36.068Z,99.90
2019-03-13T20:33:05.500Z,99.90
2019-03-13T20:35:36.784Z,99.90
2019-03-13T20:38:05.474Z,99.90
2019-03-13T20:40:34.523Z,99.90
2019-03-13T20:43:04.095Z,99.90
2019-03-13T20:45:33.229Z,99.90
2019-03-13T20:48:02.318Z,99.90
2019-03-13T20:50:37.444Z,99.90
2019-03-13T20:53:02.944Z,99.90
2019-03-13T20:55:42.102Z,99.90
2019-03-13T20:58:11.399Z,99.90
2019-03-13T21:00:49.239Z,99.90
2019-03-13T21:03:18.980Z,99.90
2019-03-13T21:05:47.832Z,99.90
2019-03-13T21:08:17.013Z,99.90
2019-03-13T21:10:46.007Z,99.90
2019-03-13T21:13:15.290Z,99.90
2019-03-13T21:15:44.476Z,99.90
2019-03-13T21:18:13.319Z,99.90
2019-03-13T21:20:43.235Z,99.90
2019-03-13T21:23:12.566Z,99.90
2019-03-13T21:25:41.526Z,99.90
2019-03-13T21:28:10.872Z,99.90
2019-03-13T21:30:40.080Z,99.90
2019-03-13T21:33:09.465Z,99.90
2019-03-13T21:35:49.761Z,99.90
2019-03-13T21:38:41.702Z,99.90
2019-03-13T21:41:10.646Z,99.90
2019-03-13T21:44:11.076Z,99.90
2019-03-13T21:46:45.943Z,99.90
2019-03-13T21:49:15.273Z,99.90
2019-03-13T21:51:44.165Z,99.90
2019-03-13T21:54:13.131Z,99.90
2019-03-13T21:56:42.371Z,99.90
2019-03-13T21:59:11.561Z,99.90
2019-03-13T22:01:40.627Z,99.90
2019-03-13T22:04:09.608Z,99.90
2019-03-13T22:06:38.530Z,99.90
2019-03-13T22:09:07.569Z,99.90
2019-03-13T22:11:36.408Z,99.90
2019-03-13T22:14:05.778Z,99.90
2019-03-13T22:16:35.140Z,99.90
2019-03-13T22:19:04.452Z,99.90
2019-03-13T22:21:33.463Z,99.90
2019-03-13T22:24:02.435Z,99.90
2019-03-13T22:26:31.479Z,99.90
2019-03-13T22:29:00.354Z,99.90
2019-03-13T22:31:29.535Z,99.90
2019-03-13T22:33:58.356Z,99.90
2019-03-13T22:36:27.394Z,99.90
2019-03-13T22:38:56.249Z,99.90
2019-03-13T22:41:25.143Z,99.90
2019-03-13T22:43:53.991Z,99.90
2019-03-13T22:46:23.043Z,99.90
2019-03-13T22:48:58.239Z,99.90
2019-03-13T22:51:22.975Z,99.90
2019-03-13T22:53:51.796Z,99.90
2019-03-13T22:56:21.457Z,99.90
2019-03-13T22:58:50.335Z,99.90
2019-03-13T23:01:20.130Z,99.90
2019-03-13T23:04:08.268Z,99.90
2019-03-13T23:06:37.155Z,99.90
2019-03-13T23:09:11.304Z,99.90
2019-03-13T23:11:41.097Z,99.90
2019-03-13T23:14:10.087Z,99.90
2019-03-13T23:16:38.995Z,99.90
2019-03-13T23:19:07.898Z,99.90
2019-03-13T23:21:37.143Z,99.90
2019-03-13T23:24:06.225Z,99.90
2019-03-13T23:26:35.037Z,99.90
2019-03-13T23:29:04.402Z,99.90
2019-03-13T23:31:33.327Z,99.90
2019-03-13T23:34:02.275Z,99.90
2019-03-13T23:36:31.255Z,99.90
2019-03-13T23:39:00.245Z,99.90
2019-03-13T23:41:29.107Z,99.90
2019-03-13T23:43:58.076Z,99.90
2019-03-13T23:46:27.014Z,99.90
2019-03-13T23:48:55.822Z,99.90
2019-03-13T23:51:25.575Z,99.90
2019-03-13T23:53:54.784Z,99.90
2019-03-13T23:56:23.660Z,99.90
2019-03-13T23:58:52.685Z,99.90
